<?xml version="1.0" encoding="UTF-8" standalone="no" ?>
<gpx xmlns="http://www.topografix.com/GPX/1/1" xmlns:xsi="http://www.w3.org/2001/XMLSchema-instance" xsi:schemaLocation="http://www.topografix.com/GPX/1/1 http://www.topografix.com/GPX/1/1/gpx.xsd" version="1.1" creator="VisuGPX - https://www.visugpx.com">
  <metadata>
    <name>Corroy-Mazy</name>
  </metadata>
  <trk>
    <name><![CDATA[Corroy-Mazy_1]]></name>
    <trkseg>
      <trkpt lat="50.5333" lon="4.59881">
        <ele>156</ele>
        <time>2020-09-22T17:47:59+02:00</time>
      </trkpt>
      <trkpt lat="50.5334" lon="4.59924">
        <ele>157</ele>
        <time>2020-09-22T17:48:13+02:00</time>
      </trkpt>
      <trkpt lat="50.53344" lon="4.59944">
        <ele>157</ele>
        <time>2020-09-22T17:48:16+02:00</time>
      </trkpt>
      <trkpt lat="50.53331" lon="4.59869">
        <ele>156</ele>
        <time>2020-09-22T17:48:19+02:00</time>
      </trkpt>
      <trkpt lat="50.53331" lon="4.59865">
        <ele>156</ele>
        <time>2020-09-22T17:48:24+02:00</time>
      </trkpt>
      <trkpt lat="50.53347" lon="4.59957">
        <ele>157</ele>
        <time>2020-09-22T17:48:39+02:00</time>
      </trkpt>
      <trkpt lat="50.53424" lon="4.60163">
        <ele>159</ele>
        <time>2020-09-22T17:49:21+02:00</time>
      </trkpt>
      <trkpt lat="50.53503" lon="4.60368">
        <ele>160</ele>
        <time>2020-09-22T17:50:00+02:00</time>
      </trkpt>
      <trkpt lat="50.53512" lon="4.60357">
        <ele>160</ele>
        <time>2020-09-22T17:50:03+02:00</time>
      </trkpt>
      <trkpt lat="50.53583" lon="4.60478">
        <ele>160</ele>
        <time>2020-09-22T17:50:26+02:00</time>
      </trkpt>
      <trkpt lat="50.53652" lon="4.60584">
        <ele>158</ele>
        <time>2020-09-22T17:50:47+02:00</time>
      </trkpt>
      <trkpt lat="50.53695" lon="4.60662">
        <ele>160</ele>
        <time>2020-09-22T17:51:00+02:00</time>
      </trkpt>
      <trkpt lat="50.5373" lon="4.60676">
        <ele>160</ele>
        <time>2020-09-22T17:51:08+02:00</time>
      </trkpt>
      <trkpt lat="50.53763" lon="4.60713">
        <ele>159</ele>
        <time>2020-09-22T17:51:22+02:00</time>
      </trkpt>
      <trkpt lat="50.53811" lon="4.6088">
        <ele>162</ele>
        <time>2020-09-22T17:51:59+02:00</time>
      </trkpt>
      <trkpt lat="50.5393" lon="4.60989">
        <ele>158</ele>
        <time>2020-09-22T17:52:44+02:00</time>
      </trkpt>
      <trkpt lat="50.53976" lon="4.61059">
        <ele>159</ele>
        <time>2020-09-22T17:53:08+02:00</time>
      </trkpt>
      <trkpt lat="50.53942" lon="4.61098">
        <ele>159</ele>
        <time>2020-09-22T17:53:21+02:00</time>
      </trkpt>
      <trkpt lat="50.539" lon="4.61206">
        <ele>162</ele>
        <time>2020-09-22T17:53:46+02:00</time>
      </trkpt>
      <trkpt lat="50.53871" lon="4.61323">
        <ele>166</ele>
        <time>2020-09-22T17:54:12+02:00</time>
      </trkpt>
      <trkpt lat="50.5402" lon="4.61421">
        <ele>166</ele>
        <time>2020-09-22T17:55:10+02:00</time>
      </trkpt>
      <trkpt lat="50.54095" lon="4.61466">
        <ele>167</ele>
        <time>2020-09-22T17:55:36+02:00</time>
      </trkpt>
      <trkpt lat="50.54113" lon="4.61488">
        <ele>167</ele>
        <time>2020-09-22T17:55:43+02:00</time>
      </trkpt>
      <trkpt lat="50.54121" lon="4.61566">
        <ele>167</ele>
        <time>2020-09-22T17:55:58+02:00</time>
      </trkpt>
      <trkpt lat="50.54122" lon="4.61704">
        <ele>168</ele>
        <time>2020-09-22T17:56:26+02:00</time>
      </trkpt>
      <trkpt lat="50.54136" lon="4.6172">
        <ele>167</ele>
        <time>2020-09-22T17:56:29+02:00</time>
      </trkpt>
      <trkpt lat="50.5412" lon="4.61752">
        <ele>167</ele>
        <time>2020-09-22T17:56:34+02:00</time>
      </trkpt>
      <trkpt lat="50.54124" lon="4.6178">
        <ele>167</ele>
        <time>2020-09-22T17:56:38+02:00</time>
      </trkpt>
      <trkpt lat="50.54146" lon="4.61883">
        <ele>168</ele>
        <time>2020-09-22T17:56:52+02:00</time>
      </trkpt>
      <trkpt lat="50.54184" lon="4.62027">
        <ele>168</ele>
        <time>2020-09-22T17:57:12+02:00</time>
      </trkpt>
      <trkpt lat="50.54234" lon="4.62154">
        <ele>167</ele>
        <time>2020-09-22T17:57:32+02:00</time>
      </trkpt>
      <trkpt lat="50.54299" lon="4.62391">
        <ele>165</ele>
        <time>2020-09-22T17:58:04+02:00</time>
      </trkpt>
      <trkpt lat="50.54347" lon="4.62713">
        <ele>165</ele>
        <time>2020-09-22T17:58:42+02:00</time>
      </trkpt>
      <trkpt lat="50.54351" lon="4.62763">
        <ele>165</ele>
        <time>2020-09-22T17:58:48+02:00</time>
      </trkpt>
      <trkpt lat="50.54353" lon="4.62867">
        <ele>163</ele>
        <time>2020-09-22T17:59:00+02:00</time>
      </trkpt>
      <trkpt lat="50.54348" lon="4.62926">
        <ele>162</ele>
        <time>2020-09-22T17:59:06+02:00</time>
      </trkpt>
      <trkpt lat="50.54343" lon="4.62987">
        <ele>162</ele>
        <time>2020-09-22T17:59:13+02:00</time>
      </trkpt>
      <trkpt lat="50.54308" lon="4.63187">
        <ele>162</ele>
        <time>2020-09-22T17:59:37+02:00</time>
      </trkpt>
      <trkpt lat="50.54299" lon="4.63216">
        <ele>161</ele>
        <time>2020-09-22T17:59:41+02:00</time>
      </trkpt>
      <trkpt lat="50.54266" lon="4.63279">
        <ele>161</ele>
        <time>2020-09-22T17:59:51+02:00</time>
      </trkpt>
      <trkpt lat="50.54195" lon="4.63377">
        <ele>161</ele>
        <time>2020-09-22T18:00:14+02:00</time>
      </trkpt>
      <trkpt lat="50.54187" lon="4.63403">
        <ele>161</ele>
        <time>2020-09-22T18:00:18+02:00</time>
      </trkpt>
      <trkpt lat="50.54152" lon="4.63484">
        <ele>163</ele>
      </trkpt>
      <trkpt lat="50.54138" lon="4.63514">
        <ele>163</ele>
      </trkpt>
      <trkpt lat="50.54103" lon="4.6355">
        <ele>163</ele>
        <time>2020-09-22T18:01:09+02:00</time>
      </trkpt>
      <trkpt lat="50.5406" lon="4.63594">
        <ele>162</ele>
        <time>2020-09-22T18:01:40+02:00</time>
      </trkpt>
      <trkpt lat="50.54039" lon="4.63611">
        <ele>162</ele>
        <time>2020-09-22T18:02:04+02:00</time>
      </trkpt>
      <trkpt lat="50.54026" lon="4.63631">
        <ele>162</ele>
        <time>2020-09-22T18:02:12+02:00</time>
      </trkpt>
      <trkpt lat="50.54009" lon="4.63642">
        <ele>162</ele>
        <time>2020-09-22T18:02:30+02:00</time>
      </trkpt>
      <trkpt lat="50.53994" lon="4.63657">
        <ele>162</ele>
        <time>2020-09-22T18:02:52+02:00</time>
      </trkpt>
      <trkpt lat="50.53946" lon="4.63699">
        <ele>163</ele>
        <time>2020-09-22T18:03:43+02:00</time>
      </trkpt>
      <trkpt lat="50.53815" lon="4.63826">
        <ele>166</ele>
        <time>2020-09-22T18:05:15+02:00</time>
      </trkpt>
      <trkpt lat="50.53751" lon="4.6386">
        <ele>166</ele>
        <time>2020-09-22T18:05:27+02:00</time>
      </trkpt>
      <trkpt lat="50.53697" lon="4.63885">
        <ele>169</ele>
      </trkpt>
      <trkpt lat="50.53638" lon="4.63952">
        <ele>173</ele>
      </trkpt>
      <trkpt lat="50.53609" lon="4.6399">
        <ele>174</ele>
      </trkpt>
      <trkpt lat="50.53645" lon="4.64043">
        <ele>173</ele>
      </trkpt>
      <trkpt lat="50.53656" lon="4.64032">
        <ele>173</ele>
      </trkpt>
      <trkpt lat="50.53691" lon="4.64053">
        <ele>173</ele>
      </trkpt>
      <trkpt lat="50.53738" lon="4.64096">
        <ele>172</ele>
      </trkpt>
      <trkpt lat="50.53925" lon="4.64306">
        <ele>171</ele>
      </trkpt>
      <trkpt lat="50.54023" lon="4.64434">
        <ele>169</ele>
      </trkpt>
      <trkpt lat="50.54118" lon="4.64594">
        <ele>170</ele>
        <time>2020-09-22T18:05:50+02:00</time>
      </trkpt>
      <trkpt lat="50.54139" lon="4.64637">
        <ele>170</ele>
        <time>2020-09-22T18:05:57+02:00</time>
      </trkpt>
      <trkpt lat="50.54131" lon="4.64646">
        <ele>170</ele>
        <time>2020-09-22T18:06:00+02:00</time>
      </trkpt>
      <trkpt lat="50.54048" lon="4.64731">
        <ele>170</ele>
        <time>2020-09-22T18:06:19+02:00</time>
      </trkpt>
      <trkpt lat="50.54008" lon="4.64784">
        <ele>171</ele>
        <time>2020-09-22T18:06:29+02:00</time>
      </trkpt>
      <trkpt lat="50.53963" lon="4.64822">
        <ele>170</ele>
        <time>2020-09-22T18:06:38+02:00</time>
      </trkpt>
      <trkpt lat="50.53935" lon="4.64845">
        <ele>169</ele>
        <time>2020-09-22T18:06:44+02:00</time>
      </trkpt>
      <trkpt lat="50.53894" lon="4.64879">
        <ele>169</ele>
        <time>2020-09-22T18:06:52+02:00</time>
      </trkpt>
      <trkpt lat="50.53854" lon="4.64918">
        <ele>169</ele>
        <time>2020-09-22T18:07:01+02:00</time>
      </trkpt>
      <trkpt lat="50.53804" lon="4.64963">
        <ele>168</ele>
        <time>2020-09-22T18:07:11+02:00</time>
      </trkpt>
      <trkpt lat="50.53784" lon="4.64982">
        <ele>168</ele>
        <time>2020-09-22T18:07:15+02:00</time>
      </trkpt>
      <trkpt lat="50.53693" lon="4.65067">
        <ele>168</ele>
        <time>2020-09-22T18:07:34+02:00</time>
      </trkpt>
      <trkpt lat="50.53657" lon="4.65108">
        <ele>167</ele>
        <time>2020-09-22T18:07:42+02:00</time>
      </trkpt>
      <trkpt lat="50.53652" lon="4.65119">
        <ele>166</ele>
        <time>2020-09-22T18:07:43+02:00</time>
      </trkpt>
      <trkpt lat="50.53634" lon="4.65367">
        <ele>165</ele>
        <time>2020-09-22T18:08:09+02:00</time>
      </trkpt>
      <trkpt lat="50.53626" lon="4.65387">
        <ele>165</ele>
        <time>2020-09-22T18:08:11+02:00</time>
      </trkpt>
      <trkpt lat="50.53617" lon="4.65403">
        <ele>165</ele>
        <time>2020-09-22T18:08:14+02:00</time>
      </trkpt>
      <trkpt lat="50.53609" lon="4.65406">
        <ele>165</ele>
        <time>2020-09-22T18:08:15+02:00</time>
      </trkpt>
      <trkpt lat="50.53565" lon="4.65412">
        <ele>163</ele>
        <time>2020-09-22T18:08:23+02:00</time>
      </trkpt>
      <trkpt lat="50.53546" lon="4.65469">
        <ele>161</ele>
        <time>2020-09-22T18:08:31+02:00</time>
      </trkpt>
      <trkpt lat="50.53531" lon="4.65495">
        <ele>160</ele>
        <time>2020-09-22T18:08:35+02:00</time>
      </trkpt>
      <trkpt lat="50.53513" lon="4.65503">
        <ele>159</ele>
        <time>2020-09-22T18:08:39+02:00</time>
      </trkpt>
      <trkpt lat="50.5352" lon="4.655">
        <ele>159</ele>
        <time>2020-09-22T18:08:52+02:00</time>
      </trkpt>
      <trkpt lat="50.53525" lon="4.65501">
        <ele>159</ele>
        <time>2020-09-22T18:08:55+02:00</time>
      </trkpt>
      <trkpt lat="50.53527" lon="4.655">
        <ele>159</ele>
        <time>2020-09-22T18:08:58+02:00</time>
      </trkpt>
      <trkpt lat="50.53527" lon="4.65504">
        <ele>159</ele>
        <time>2020-09-22T18:09:00+02:00</time>
      </trkpt>
      <trkpt lat="50.53521" lon="4.65491">
        <ele>159</ele>
        <time>2020-09-22T18:09:03+02:00</time>
      </trkpt>
      <trkpt lat="50.53524" lon="4.65491">
        <ele>159</ele>
        <time>2020-09-22T18:09:03+02:00</time>
      </trkpt>
      <trkpt lat="50.53524" lon="4.65496">
        <ele>159</ele>
        <time>2020-09-22T18:09:04+02:00</time>
      </trkpt>
      <trkpt lat="50.53532" lon="4.655">
        <ele>160</ele>
        <time>2020-09-22T18:09:07+02:00</time>
      </trkpt>
      <trkpt lat="50.53521" lon="4.655">
        <ele>159</ele>
        <time>2020-09-22T18:09:10+02:00</time>
      </trkpt>
      <trkpt lat="50.53513" lon="4.65503">
        <ele>159</ele>
        <time>2020-09-22T18:09:24+02:00</time>
      </trkpt>
      <trkpt lat="50.53516" lon="4.65587">
        <ele>157</ele>
        <time>2020-09-22T18:09:32+02:00</time>
      </trkpt>
      <trkpt lat="50.53516" lon="4.65624">
        <ele>156</ele>
        <time>2020-09-22T18:09:36+02:00</time>
      </trkpt>
      <trkpt lat="50.53533" lon="4.65718">
        <ele>158</ele>
        <time>2020-09-22T18:09:47+02:00</time>
      </trkpt>
      <trkpt lat="50.53539" lon="4.65721">
        <ele>158</ele>
        <time>2020-09-22T18:09:49+02:00</time>
      </trkpt>
      <trkpt lat="50.53532" lon="4.65796">
        <ele>159</ele>
        <time>2020-09-22T18:10:06+02:00</time>
      </trkpt>
      <trkpt lat="50.53499" lon="4.65841">
        <ele>157</ele>
        <time>2020-09-22T18:10:24+02:00</time>
      </trkpt>
      <trkpt lat="50.53495" lon="4.6587">
        <ele>158</ele>
        <time>2020-09-22T18:10:31+02:00</time>
      </trkpt>
      <trkpt lat="50.53559" lon="4.65877">
        <ele>162</ele>
        <time>2020-09-22T18:10:49+02:00</time>
      </trkpt>
      <trkpt lat="50.53588" lon="4.65917">
        <ele>163</ele>
        <time>2020-09-22T18:11:00+02:00</time>
      </trkpt>
      <trkpt lat="50.536" lon="4.65934">
        <ele>163</ele>
        <time>2020-09-22T18:11:05+02:00</time>
      </trkpt>
      <trkpt lat="50.53593" lon="4.65946">
        <ele>163</ele>
        <time>2020-09-22T18:11:08+02:00</time>
      </trkpt>
      <trkpt lat="50.53589" lon="4.65952">
        <ele>163</ele>
        <time>2020-09-22T18:11:09+02:00</time>
      </trkpt>
      <trkpt lat="50.53576" lon="4.6597">
        <ele>163</ele>
        <time>2020-09-22T18:11:14+02:00</time>
      </trkpt>
      <trkpt lat="50.53562" lon="4.66147">
        <ele>163</ele>
        <time>2020-09-22T18:11:39+02:00</time>
      </trkpt>
      <trkpt lat="50.53562" lon="4.66163">
        <ele>163</ele>
        <time>2020-09-22T18:11:41+02:00</time>
      </trkpt>
      <trkpt lat="50.53582" lon="4.66318">
        <ele>161</ele>
        <time>2020-09-22T18:11:58+02:00</time>
      </trkpt>
      <trkpt lat="50.53583" lon="4.66328">
        <ele>161</ele>
        <time>2020-09-22T18:11:59+02:00</time>
      </trkpt>
      <trkpt lat="50.53568" lon="4.66321">
        <ele>161</ele>
        <time>2020-09-22T18:12:01+02:00</time>
      </trkpt>
      <trkpt lat="50.53452" lon="4.66241">
        <ele>157</ele>
        <time>2020-09-22T18:12:20+02:00</time>
      </trkpt>
      <trkpt lat="50.53401" lon="4.66214">
        <ele>153</ele>
        <time>2020-09-22T18:12:28+02:00</time>
      </trkpt>
      <trkpt lat="50.53371" lon="4.66218">
        <ele>150</ele>
        <time>2020-09-22T18:12:33+02:00</time>
      </trkpt>
      <trkpt lat="50.53346" lon="4.66244">
        <ele>148</ele>
        <time>2020-09-22T18:12:37+02:00</time>
      </trkpt>
      <trkpt lat="50.53335" lon="4.66304">
        <ele>148</ele>
        <time>2020-09-22T18:12:44+02:00</time>
      </trkpt>
      <trkpt lat="50.53333" lon="4.66366">
        <ele>148</ele>
        <time>2020-09-22T18:12:50+02:00</time>
      </trkpt>
      <trkpt lat="50.53338" lon="4.66416">
        <ele>147</ele>
        <time>2020-09-22T18:12:55+02:00</time>
      </trkpt>
      <trkpt lat="50.53354" lon="4.66496">
        <ele>148</ele>
        <time>2020-09-22T18:13:05+02:00</time>
      </trkpt>
      <trkpt lat="50.53362" lon="4.66629">
        <ele>147</ele>
        <time>2020-09-22T18:13:20+02:00</time>
      </trkpt>
      <trkpt lat="50.53362" lon="4.66732">
        <ele>146</ele>
        <time>2020-09-22T18:13:32+02:00</time>
      </trkpt>
      <trkpt lat="50.53369" lon="4.66802">
        <ele>145</ele>
        <time>2020-09-22T18:13:41+02:00</time>
      </trkpt>
      <trkpt lat="50.53366" lon="4.66867">
        <ele>144</ele>
        <time>2020-09-22T18:13:49+02:00</time>
      </trkpt>
      <trkpt lat="50.5338" lon="4.66933">
        <ele>144</ele>
        <time>2020-09-22T18:14:03+02:00</time>
      </trkpt>
      <trkpt lat="50.53412" lon="4.67021">
        <ele>142</ele>
        <time>2020-09-22T18:14:24+02:00</time>
      </trkpt>
      <trkpt lat="50.53413" lon="4.67025">
        <ele>142</ele>
        <time>2020-09-22T18:14:24+02:00</time>
      </trkpt>
      <trkpt lat="50.53426" lon="4.67076">
        <ele>142</ele>
        <time>2020-09-22T18:14:35+02:00</time>
      </trkpt>
      <trkpt lat="50.53471" lon="4.67195">
        <ele>145</ele>
        <time>2020-09-22T18:15:03+02:00</time>
      </trkpt>
      <trkpt lat="50.53494" lon="4.67277">
        <ele>147</ele>
        <time>2020-09-22T18:15:21+02:00</time>
      </trkpt>
      <trkpt lat="50.53505" lon="4.67359">
        <ele>146</ele>
        <time>2020-09-22T18:15:38+02:00</time>
      </trkpt>
      <trkpt lat="50.5353" lon="4.6742">
        <ele>149</ele>
        <time>2020-09-22T18:15:52+02:00</time>
      </trkpt>
      <trkpt lat="50.53533" lon="4.67476">
        <ele>148</ele>
        <time>2020-09-22T18:16:03+02:00</time>
      </trkpt>
      <trkpt lat="50.53527" lon="4.6758">
        <ele>145</ele>
        <time>2020-09-22T18:16:22+02:00</time>
      </trkpt>
      <trkpt lat="50.53533" lon="4.67858">
        <ele>144</ele>
        <time>2020-09-22T18:17:13+02:00</time>
      </trkpt>
      <trkpt lat="50.53554" lon="4.68142">
        <ele>139</ele>
        <time>2020-09-22T18:18:03+02:00</time>
      </trkpt>
      <trkpt lat="50.53561" lon="4.68358">
        <ele>135</ele>
        <time>2020-09-22T18:18:39+02:00</time>
      </trkpt>
      <trkpt lat="50.53562" lon="4.68383">
        <ele>134</ele>
        <time>2020-09-22T18:18:43+02:00</time>
      </trkpt>
      <trkpt lat="50.53571" lon="4.68447">
        <ele>133</ele>
        <time>2020-09-22T18:18:50+02:00</time>
      </trkpt>
      <trkpt lat="50.53632" lon="4.68648">
        <ele>123</ele>
        <time>2020-09-22T18:19:12+02:00</time>
      </trkpt>
      <trkpt lat="50.53634" lon="4.68676">
        <ele>123</ele>
        <time>2020-09-22T18:19:15+02:00</time>
      </trkpt>
      <trkpt lat="50.53629" lon="4.68733">
        <ele>123</ele>
        <time>2020-09-22T18:19:22+02:00</time>
      </trkpt>
      <trkpt lat="50.53628" lon="4.68762">
        <ele>124</ele>
        <time>2020-09-22T18:19:25+02:00</time>
      </trkpt>
      <trkpt lat="50.53625" lon="4.68786">
        <ele>125</ele>
        <time>2020-09-22T18:19:28+02:00</time>
      </trkpt>
      <trkpt lat="50.53634" lon="4.68797">
        <ele>125</ele>
        <time>2020-09-22T18:19:31+02:00</time>
      </trkpt>
      <trkpt lat="50.53663" lon="4.68827">
        <ele>127</ele>
        <time>2020-09-22T18:19:39+02:00</time>
      </trkpt>
      <trkpt lat="50.53678" lon="4.68853">
        <ele>128</ele>
        <time>2020-09-22T18:19:44+02:00</time>
      </trkpt>
      <trkpt lat="50.53681" lon="4.68881">
        <ele>129</ele>
        <time>2020-09-22T18:19:49+02:00</time>
      </trkpt>
      <trkpt lat="50.53681" lon="4.68919">
        <ele>129</ele>
        <time>2020-09-22T18:19:56+02:00</time>
      </trkpt>
      <trkpt lat="50.5371" lon="4.68959">
        <ele>131</ele>
        <time>2020-09-22T18:20:09+02:00</time>
      </trkpt>
      <trkpt lat="50.53735" lon="4.69004">
        <ele>133</ele>
        <time>2020-09-22T18:20:23+02:00</time>
      </trkpt>
      <trkpt lat="50.53776" lon="4.69106">
        <ele>136</ele>
        <time>2020-09-22T18:20:51+02:00</time>
      </trkpt>
      <trkpt lat="50.53847" lon="4.69208">
        <ele>146</ele>
        <time>2020-09-22T18:21:22+02:00</time>
      </trkpt>
      <trkpt lat="50.53898" lon="4.69412">
        <ele>146</ele>
        <time>2020-09-22T18:22:11+02:00</time>
      </trkpt>
      <trkpt lat="50.53936" lon="4.69541">
        <ele>140</ele>
        <time>2020-09-22T18:22:38+02:00</time>
      </trkpt>
      <trkpt lat="50.54035" lon="4.6977">
        <ele>137</ele>
        <time>2020-09-22T18:23:33+02:00</time>
      </trkpt>
      <trkpt lat="50.5413" lon="4.7002">
        <ele>140</ele>
        <time>2020-09-22T18:24:42+02:00</time>
      </trkpt>
      <trkpt lat="50.5415" lon="4.70077">
        <ele>139</ele>
        <time>2020-09-22T18:24:56+02:00</time>
      </trkpt>
      <trkpt lat="50.54155" lon="4.70089">
        <ele>139</ele>
        <time>2020-09-22T18:25:00+02:00</time>
      </trkpt>
      <trkpt lat="50.54149" lon="4.70082">
        <ele>139</ele>
        <time>2020-09-22T18:25:02+02:00</time>
      </trkpt>
      <trkpt lat="50.54101" lon="4.69996">
        <ele>139</ele>
        <time>2020-09-22T18:25:25+02:00</time>
      </trkpt>
      <trkpt lat="50.54069" lon="4.69913">
        <ele>137</ele>
        <time>2020-09-22T18:25:47+02:00</time>
      </trkpt>
      <trkpt lat="50.54019" lon="4.69858">
        <ele>134</ele>
        <time>2020-09-22T18:26:15+02:00</time>
      </trkpt>
      <trkpt lat="50.53993" lon="4.69871">
        <ele>133</ele>
        <time>2020-09-22T18:26:30+02:00</time>
      </trkpt>
      <trkpt lat="50.53983" lon="4.69876">
        <ele>134</ele>
        <time>2020-09-22T18:26:35+02:00</time>
      </trkpt>
      <trkpt lat="50.53942" lon="4.69897">
        <ele>136</ele>
        <time>2020-09-22T18:27:00+02:00</time>
      </trkpt>
      <trkpt lat="50.53891" lon="4.69901">
        <ele>142</ele>
        <time>2020-09-22T18:27:33+02:00</time>
      </trkpt>
      <trkpt lat="50.53773" lon="4.69833">
        <ele>154</ele>
        <time>2020-09-22T18:28:58+02:00</time>
      </trkpt>
      <trkpt lat="50.53709" lon="4.69824">
        <ele>159</ele>
        <time>2020-09-22T18:29:32+02:00</time>
      </trkpt>
      <trkpt lat="50.5368" lon="4.69814">
        <ele>161</ele>
        <time>2020-09-22T18:29:46+02:00</time>
      </trkpt>
      <trkpt lat="50.53635" lon="4.69799">
        <ele>161</ele>
        <time>2020-09-22T18:30:06+02:00</time>
      </trkpt>
      <trkpt lat="50.53613" lon="4.69789">
        <ele>160</ele>
      </trkpt>
      <trkpt lat="50.53584" lon="4.698">
        <ele>159</ele>
        <time>2020-09-22T18:30:28+02:00</time>
      </trkpt>
      <trkpt lat="50.53499" lon="4.69859">
        <ele>159</ele>
        <time>2020-09-22T18:31:07+02:00</time>
      </trkpt>
      <trkpt lat="50.53459" lon="4.69883">
        <ele>162</ele>
        <time>2020-09-22T18:31:23+02:00</time>
      </trkpt>
      <trkpt lat="50.53459" lon="4.69883">
        <ele>162</ele>
        <time>2020-09-22T18:31:23+02:00</time>
      </trkpt>
      <trkpt lat="50.53459" lon="4.69883">
        <ele>162</ele>
        <time>2020-09-22T18:31:23+02:00</time>
      </trkpt>
      <trkpt lat="50.53401" lon="4.69859">
        <ele>166</ele>
        <time>2020-09-22T18:31:44+02:00</time>
      </trkpt>
      <trkpt lat="50.52915" lon="4.69609">
        <ele>142</ele>
        <time>2020-09-22T18:33:58+02:00</time>
      </trkpt>
      <trkpt lat="50.52874" lon="4.69733">
        <ele>149</ele>
        <time>2020-09-22T18:34:21+02:00</time>
      </trkpt>
      <trkpt lat="50.52825" lon="4.7003">
        <ele>149</ele>
        <time>2020-09-22T18:35:27+02:00</time>
      </trkpt>
      <trkpt lat="50.52847" lon="4.70226">
        <ele>149</ele>
        <time>2020-09-22T18:36:17+02:00</time>
      </trkpt>
      <trkpt lat="50.5287" lon="4.7052">
        <ele>155</ele>
        <time>2020-09-22T18:37:33+02:00</time>
      </trkpt>
      <trkpt lat="50.52871" lon="4.70544">
        <ele>156</ele>
        <time>2020-09-22T18:37:40+02:00</time>
      </trkpt>
      <trkpt lat="50.52772" lon="4.70451">
        <ele>149</ele>
        <time>2020-09-22T18:38:17+02:00</time>
      </trkpt>
      <trkpt lat="50.522" lon="4.69996">
        <ele>168</ele>
        <time>2020-09-22T18:42:39+02:00</time>
      </trkpt>
      <trkpt lat="50.52176" lon="4.69976">
        <ele>168</ele>
        <time>2020-09-22T18:42:48+02:00</time>
      </trkpt>
      <trkpt lat="50.52173" lon="4.69975">
        <ele>168</ele>
        <time>2020-09-22T18:42:49+02:00</time>
      </trkpt>
      <trkpt lat="50.5216" lon="4.69968">
        <ele>167</ele>
        <time>2020-09-22T18:42:53+02:00</time>
      </trkpt>
      <trkpt lat="50.52047" lon="4.70062">
        <ele>164</ele>
        <time>2020-09-22T18:43:14+02:00</time>
      </trkpt>
      <trkpt lat="50.51967" lon="4.6975">
        <ele>162</ele>
        <time>2020-09-22T18:43:50+02:00</time>
      </trkpt>
      <trkpt lat="50.51961" lon="4.69709">
        <ele>161</ele>
        <time>2020-09-22T18:43:54+02:00</time>
      </trkpt>
      <trkpt lat="50.51949" lon="4.69677">
        <ele>160</ele>
        <time>2020-09-22T18:43:58+02:00</time>
      </trkpt>
      <trkpt lat="50.51938" lon="4.69628">
        <ele>159</ele>
        <time>2020-09-22T18:44:03+02:00</time>
      </trkpt>
      <trkpt lat="50.51913" lon="4.69473">
        <ele>158</ele>
        <time>2020-09-22T18:44:20+02:00</time>
      </trkpt>
      <trkpt lat="50.51869" lon="4.69363">
        <ele>157</ele>
        <time>2020-09-22T18:44:34+02:00</time>
      </trkpt>
      <trkpt lat="50.51863" lon="4.69351">
        <ele>157</ele>
        <time>2020-09-22T18:44:36+02:00</time>
      </trkpt>
      <trkpt lat="50.51845" lon="4.6931">
        <ele>157</ele>
        <time>2020-09-22T18:44:45+02:00</time>
      </trkpt>
      <trkpt lat="50.51778" lon="4.69042">
        <ele>156</ele>
        <time>2020-09-22T18:45:40+02:00</time>
      </trkpt>
      <trkpt lat="50.51652" lon="4.68581">
        <ele>155</ele>
        <time>2020-09-22T18:47:32+02:00</time>
      </trkpt>
      <trkpt lat="50.51651" lon="4.6858">
        <ele>155</ele>
        <time>2020-09-22T18:47:32+02:00</time>
      </trkpt>
      <trkpt lat="50.5165" lon="4.68565">
        <ele>155</ele>
        <time>2020-09-22T18:47:37+02:00</time>
      </trkpt>
      <trkpt lat="50.51659" lon="4.68537">
        <ele>155</ele>
        <time>2020-09-22T18:47:46+02:00</time>
      </trkpt>
      <trkpt lat="50.51657" lon="4.68491">
        <ele>155</ele>
        <time>2020-09-22T18:48:00+02:00</time>
      </trkpt>
      <trkpt lat="50.51644" lon="4.68306">
        <ele>162</ele>
        <time>2020-09-22T18:48:39+02:00</time>
      </trkpt>
      <trkpt lat="50.51676" lon="4.68283">
        <ele>160</ele>
      </trkpt>
      <trkpt lat="50.51733" lon="4.68244">
        <ele>155</ele>
        <time>2020-09-22T18:49:00+02:00</time>
      </trkpt>
      <trkpt lat="50.51738" lon="4.68199">
        <ele>149</ele>
        <time>2020-09-22T18:49:23+02:00</time>
      </trkpt>
      <trkpt lat="50.51708" lon="4.68132">
        <ele>144</ele>
        <time>2020-09-22T18:49:30+02:00</time>
      </trkpt>
      <trkpt lat="50.51702" lon="4.68038">
        <ele>133</ele>
        <time>2020-09-22T18:49:35+02:00</time>
      </trkpt>
      <trkpt lat="50.51682" lon="4.67995">
        <ele>127</ele>
      </trkpt>
      <trkpt lat="50.51661" lon="4.67989">
        <ele>126</ele>
      </trkpt>
      <trkpt lat="50.51622" lon="4.6803">
        <ele>134</ele>
        <time>2020-09-22T18:49:45+02:00</time>
      </trkpt>
      <trkpt lat="50.5159" lon="4.68015">
        <ele>131</ele>
        <time>2020-09-22T18:49:56+02:00</time>
      </trkpt>
      <trkpt lat="50.51574" lon="4.68">
        <ele>130</ele>
        <time>2020-09-22T18:50:21+02:00</time>
      </trkpt>
      <trkpt lat="50.51564" lon="4.67989">
        <ele>129</ele>
        <time>2020-09-22T18:50:41+02:00</time>
      </trkpt>
      <trkpt lat="50.51553" lon="4.67979">
        <ele>129</ele>
        <time>2020-09-22T18:51:07+02:00</time>
      </trkpt>
      <trkpt lat="50.51545" lon="4.67968">
        <ele>129</ele>
        <time>2020-09-22T18:51:31+02:00</time>
      </trkpt>
      <trkpt lat="50.51531" lon="4.67956">
        <ele>129</ele>
        <time>2020-09-22T18:51:51+02:00</time>
      </trkpt>
      <trkpt lat="50.51518" lon="4.67938">
        <ele>127</ele>
        <time>2020-09-22T18:52:09+02:00</time>
      </trkpt>
      <trkpt lat="50.51516" lon="4.67928">
        <ele>125</ele>
        <time>2020-09-22T18:52:25+02:00</time>
      </trkpt>
      <trkpt lat="50.51507" lon="4.67902">
        <ele>123</ele>
        <time>2020-09-22T18:52:29+02:00</time>
      </trkpt>
      <trkpt lat="50.51502" lon="4.67893">
        <ele>122</ele>
        <time>2020-09-22T18:52:31+02:00</time>
      </trkpt>
      <trkpt lat="50.51487" lon="4.67883">
        <ele>120</ele>
        <time>2020-09-22T18:52:33+02:00</time>
      </trkpt>
      <trkpt lat="50.51484" lon="4.6788">
        <ele>120</ele>
        <time>2020-09-22T18:52:34+02:00</time>
      </trkpt>
      <trkpt lat="50.51486" lon="4.6788">
        <ele>120</ele>
        <time>2020-09-22T18:52:37+02:00</time>
      </trkpt>
      <trkpt lat="50.51475" lon="4.67863">
        <ele>117</ele>
        <time>2020-09-22T18:52:47+02:00</time>
      </trkpt>
      <trkpt lat="50.51466" lon="4.67842">
        <ele>115</ele>
        <time>2020-09-22T18:52:48+02:00</time>
      </trkpt>
      <trkpt lat="50.51465" lon="4.67825">
        <ele>114</ele>
        <time>2020-09-22T18:52:50+02:00</time>
      </trkpt>
      <trkpt lat="50.51458" lon="4.67801">
        <ele>114</ele>
        <time>2020-09-22T18:52:53+02:00</time>
      </trkpt>
      <trkpt lat="50.5146" lon="4.67788">
        <ele>114</ele>
        <time>2020-09-22T18:52:55+02:00</time>
      </trkpt>
      <trkpt lat="50.51456" lon="4.67784">
        <ele>114</ele>
        <time>2020-09-22T18:52:57+02:00</time>
      </trkpt>
      <trkpt lat="50.51454" lon="4.67775">
        <ele>114</ele>
        <time>2020-09-22T18:53:02+02:00</time>
      </trkpt>
      <trkpt lat="50.51443" lon="4.67769">
        <ele>114</ele>
        <time>2020-09-22T18:53:14+02:00</time>
      </trkpt>
      <trkpt lat="50.5144" lon="4.67765">
        <ele>114</ele>
        <time>2020-09-22T18:53:14+02:00</time>
      </trkpt>
      <trkpt lat="50.5145" lon="4.67779">
        <ele>114</ele>
        <time>2020-09-22T18:53:33+02:00</time>
      </trkpt>
      <trkpt lat="50.51447" lon="4.67776">
        <ele>114</ele>
        <time>2020-09-22T18:53:37+02:00</time>
      </trkpt>
      <trkpt lat="50.51449" lon="4.67779">
        <ele>114</ele>
        <time>2020-09-22T18:53:50+02:00</time>
      </trkpt>
      <trkpt lat="50.51446" lon="4.6778">
        <ele>114</ele>
        <time>2020-09-22T18:54:00+02:00</time>
      </trkpt>
      <trkpt lat="50.51447" lon="4.67778">
        <ele>114</ele>
        <time>2020-09-22T18:54:14+02:00</time>
      </trkpt>
      <trkpt lat="50.51454" lon="4.67783">
        <ele>114</ele>
        <time>2020-09-22T18:54:20+02:00</time>
      </trkpt>
      <trkpt lat="50.51447" lon="4.67775">
        <ele>114</ele>
        <time>2020-09-22T18:54:47+02:00</time>
      </trkpt>
      <trkpt lat="50.51446" lon="4.67781">
        <ele>114</ele>
        <time>2020-09-22T18:54:55+02:00</time>
      </trkpt>
      <trkpt lat="50.51439" lon="4.67757">
        <ele>114</ele>
        <time>2020-09-22T18:55:00+02:00</time>
      </trkpt>
      <trkpt lat="50.51432" lon="4.67748">
        <ele>114</ele>
        <time>2020-09-22T18:55:14+02:00</time>
      </trkpt>
      <trkpt lat="50.5142" lon="4.67725">
        <ele>115</ele>
        <time>2020-09-22T18:55:23+02:00</time>
      </trkpt>
      <trkpt lat="50.51421" lon="4.67701">
        <ele>116</ele>
        <time>2020-09-22T18:55:35+02:00</time>
      </trkpt>
      <trkpt lat="50.51428" lon="4.67682">
        <ele>118</ele>
        <time>2020-09-22T18:55:42+02:00</time>
      </trkpt>
      <trkpt lat="50.51432" lon="4.67668">
        <ele>119</ele>
        <time>2020-09-22T18:55:50+02:00</time>
      </trkpt>
      <trkpt lat="50.51429" lon="4.67648">
        <ele>120</ele>
        <time>2020-09-22T18:55:54+02:00</time>
      </trkpt>
      <trkpt lat="50.51439" lon="4.67642">
        <ele>121</ele>
        <time>2020-09-22T18:56:51+02:00</time>
      </trkpt>
      <trkpt lat="50.51454" lon="4.6763">
        <ele>122</ele>
        <time>2020-09-22T18:57:02+02:00</time>
      </trkpt>
      <trkpt lat="50.51447" lon="4.67597">
        <ele>124</ele>
        <time>2020-09-22T18:57:08+02:00</time>
      </trkpt>
      <trkpt lat="50.51458" lon="4.67555">
        <ele>127</ele>
        <time>2020-09-22T18:57:14+02:00</time>
      </trkpt>
      <trkpt lat="50.51442" lon="4.67344">
        <ele>134</ele>
        <time>2020-09-22T18:57:33+02:00</time>
      </trkpt>
      <trkpt lat="50.51412" lon="4.67282">
        <ele>132</ele>
        <time>2020-09-22T18:57:40+02:00</time>
      </trkpt>
      <trkpt lat="50.51396" lon="4.6731">
        <ele>131</ele>
        <time>2020-09-22T18:57:44+02:00</time>
      </trkpt>
      <trkpt lat="50.51352" lon="4.67251">
        <ele>128</ele>
        <time>2020-09-22T18:58:24+02:00</time>
      </trkpt>
      <trkpt lat="50.51352" lon="4.67236">
        <ele>128</ele>
        <time>2020-09-22T18:58:26+02:00</time>
      </trkpt>
      <trkpt lat="50.51337" lon="4.67171">
        <ele>126</ele>
        <time>2020-09-22T18:58:33+02:00</time>
      </trkpt>
      <trkpt lat="50.51322" lon="4.67108">
        <ele>125</ele>
        <time>2020-09-22T18:58:41+02:00</time>
      </trkpt>
      <trkpt lat="50.51315" lon="4.67075">
        <ele>126</ele>
        <time>2020-09-22T18:58:45+02:00</time>
      </trkpt>
      <trkpt lat="50.51305" lon="4.6701">
        <ele>126</ele>
        <time>2020-09-22T18:58:54+02:00</time>
      </trkpt>
      <trkpt lat="50.51293" lon="4.66891">
        <ele>128</ele>
        <time>2020-09-22T18:59:15+02:00</time>
      </trkpt>
      <trkpt lat="50.51271" lon="4.66756">
        <ele>129</ele>
        <time>2020-09-22T18:59:43+02:00</time>
      </trkpt>
      <trkpt lat="50.51269" lon="4.66722">
        <ele>129</ele>
        <time>2020-09-22T18:59:50+02:00</time>
      </trkpt>
      <trkpt lat="50.5128" lon="4.66661">
        <ele>131</ele>
        <time>2020-09-22T19:00:04+02:00</time>
      </trkpt>
      <trkpt lat="50.51277" lon="4.66619">
        <ele>131</ele>
        <time>2020-09-22T19:00:14+02:00</time>
      </trkpt>
      <trkpt lat="50.51243" lon="4.66444">
        <ele>136</ele>
        <time>2020-09-22T19:00:56+02:00</time>
      </trkpt>
      <trkpt lat="50.51228" lon="4.66292">
        <ele>141</ele>
        <time>2020-09-22T19:01:32+02:00</time>
      </trkpt>
      <trkpt lat="50.5123" lon="4.6607">
        <ele>142</ele>
        <time>2020-09-22T19:02:16+02:00</time>
      </trkpt>
      <trkpt lat="50.51233" lon="4.65788">
        <ele>144</ele>
        <time>2020-09-22T19:03:01+02:00</time>
      </trkpt>
      <trkpt lat="50.51238" lon="4.65628">
        <ele>143</ele>
        <time>2020-09-22T19:03:18+02:00</time>
      </trkpt>
      <trkpt lat="50.51238" lon="4.65596">
        <ele>142</ele>
        <time>2020-09-22T19:03:21+02:00</time>
      </trkpt>
      <trkpt lat="50.51246" lon="4.65596">
        <ele>142</ele>
        <time>2020-09-22T19:03:23+02:00</time>
      </trkpt>
      <trkpt lat="50.5125" lon="4.65566">
        <ele>140</ele>
        <time>2020-09-22T19:03:26+02:00</time>
      </trkpt>
      <trkpt lat="50.51277" lon="4.65305">
        <ele>129</ele>
        <time>2020-09-22T19:03:50+02:00</time>
      </trkpt>
      <trkpt lat="50.51269" lon="4.6525">
        <ele>128</ele>
        <time>2020-09-22T19:03:56+02:00</time>
      </trkpt>
      <trkpt lat="50.51269" lon="4.65165">
        <ele>128</ele>
        <time>2020-09-22T19:04:12+02:00</time>
      </trkpt>
      <trkpt lat="50.51288" lon="4.64876">
        <ele>136</ele>
      </trkpt>
      <trkpt lat="50.51294" lon="4.64745">
        <ele>137</ele>
      </trkpt>
      <trkpt lat="50.51307" lon="4.64629">
        <ele>141</ele>
        <time>2020-09-22T19:06:40+02:00</time>
      </trkpt>
      <trkpt lat="50.51309" lon="4.64581">
        <ele>142</ele>
        <time>2020-09-22T19:06:54+02:00</time>
      </trkpt>
      <trkpt lat="50.51299" lon="4.64457">
        <ele>146</ele>
        <time>2020-09-22T19:07:35+02:00</time>
      </trkpt>
      <trkpt lat="50.51281" lon="4.64367">
        <ele>149</ele>
        <time>2020-09-22T19:08:06+02:00</time>
      </trkpt>
      <trkpt lat="50.51216" lon="4.64192">
        <ele>154</ele>
        <time>2020-09-22T19:09:11+02:00</time>
      </trkpt>
      <trkpt lat="50.51177" lon="4.64005">
        <ele>156</ele>
        <time>2020-09-22T19:10:09+02:00</time>
      </trkpt>
      <trkpt lat="50.51179" lon="4.63894">
        <ele>158</ele>
        <time>2020-09-22T19:10:37+02:00</time>
      </trkpt>
      <trkpt lat="50.51189" lon="4.63802">
        <ele>156</ele>
        <time>2020-09-22T19:10:58+02:00</time>
      </trkpt>
      <trkpt lat="50.51178" lon="4.63682">
        <ele>154</ele>
        <time>2020-09-22T19:11:22+02:00</time>
      </trkpt>
      <trkpt lat="50.5116" lon="4.63602">
        <ele>152</ele>
        <time>2020-09-22T19:11:38+02:00</time>
      </trkpt>
      <trkpt lat="50.51126" lon="4.63497">
        <ele>151</ele>
        <time>2020-09-22T19:11:59+02:00</time>
      </trkpt>
      <trkpt lat="50.51157" lon="4.6347">
        <ele>151</ele>
        <time>2020-09-22T19:12:05+02:00</time>
      </trkpt>
      <trkpt lat="50.51173" lon="4.63436">
        <ele>151</ele>
        <time>2020-09-22T19:12:09+02:00</time>
      </trkpt>
      <trkpt lat="50.51177" lon="4.63369">
        <ele>151</ele>
        <time>2020-09-22T19:12:16+02:00</time>
      </trkpt>
      <trkpt lat="50.51147" lon="4.63196">
        <ele>149</ele>
        <time>2020-09-22T19:12:49+02:00</time>
      </trkpt>
      <trkpt lat="50.5117" lon="4.62797">
        <ele>153</ele>
        <time>2020-09-22T19:14:22+02:00</time>
      </trkpt>
      <trkpt lat="50.51159" lon="4.62609">
        <ele>156</ele>
        <time>2020-09-22T19:15:09+02:00</time>
      </trkpt>
      <trkpt lat="50.51175" lon="4.62464">
        <ele>156</ele>
        <time>2020-09-22T19:15:41+02:00</time>
      </trkpt>
      <trkpt lat="50.51169" lon="4.62424">
        <ele>155</ele>
        <time>2020-09-22T19:15:50+02:00</time>
      </trkpt>
      <trkpt lat="50.5112" lon="4.62253">
        <ele>154</ele>
        <time>2020-09-22T19:16:27+02:00</time>
      </trkpt>
      <trkpt lat="50.51107" lon="4.62203">
        <ele>154</ele>
        <time>2020-09-22T19:16:33+02:00</time>
      </trkpt>
      <trkpt lat="50.51096" lon="4.62159">
        <ele>153</ele>
        <time>2020-09-22T19:16:39+02:00</time>
      </trkpt>
      <trkpt lat="50.51152" lon="4.62169">
        <ele>154</ele>
        <time>2020-09-22T19:16:52+02:00</time>
      </trkpt>
      <trkpt lat="50.51225" lon="4.62142">
        <ele>151</ele>
        <time>2020-09-22T19:17:08+02:00</time>
      </trkpt>
      <trkpt lat="50.51258" lon="4.6216">
        <ele>150</ele>
        <time>2020-09-22T19:17:16+02:00</time>
      </trkpt>
      <trkpt lat="50.51274" lon="4.6218">
        <ele>150</ele>
        <time>2020-09-22T19:17:21+02:00</time>
      </trkpt>
      <trkpt lat="50.5127" lon="4.6216">
        <ele>149</ele>
        <time>2020-09-22T19:17:27+02:00</time>
      </trkpt>
      <trkpt lat="50.51273" lon="4.62173">
        <ele>149</ele>
        <time>2020-09-22T19:17:31+02:00</time>
      </trkpt>
      <trkpt lat="50.51271" lon="4.6217">
        <ele>149</ele>
        <time>2020-09-22T19:17:36+02:00</time>
      </trkpt>
      <trkpt lat="50.51272" lon="4.62179">
        <ele>150</ele>
        <time>2020-09-22T19:17:40+02:00</time>
      </trkpt>
      <trkpt lat="50.51274" lon="4.62176">
        <ele>149</ele>
        <time>2020-09-22T19:17:43+02:00</time>
      </trkpt>
      <trkpt lat="50.51271" lon="4.62175">
        <ele>150</ele>
        <time>2020-09-22T19:17:45+02:00</time>
      </trkpt>
      <trkpt lat="50.51271" lon="4.62171">
        <ele>149</ele>
        <time>2020-09-22T19:17:49+02:00</time>
      </trkpt>
      <trkpt lat="50.51271" lon="4.62174">
        <ele>150</ele>
        <time>2020-09-22T19:17:53+02:00</time>
      </trkpt>
      <trkpt lat="50.51272" lon="4.62172">
        <ele>149</ele>
        <time>2020-09-22T19:17:56+02:00</time>
      </trkpt>
      <trkpt lat="50.51274" lon="4.6218">
        <ele>150</ele>
        <time>2020-09-22T19:18:00+02:00</time>
      </trkpt>
      <trkpt lat="50.51231" lon="4.61969">
        <ele>143</ele>
        <time>2020-09-22T19:18:21+02:00</time>
      </trkpt>
      <trkpt lat="50.51224" lon="4.61902">
        <ele>140</ele>
        <time>2020-09-22T19:18:27+02:00</time>
      </trkpt>
      <trkpt lat="50.51214" lon="4.61779">
        <ele>134</ele>
        <time>2020-09-22T19:18:38+02:00</time>
      </trkpt>
      <trkpt lat="50.51168" lon="4.61625">
        <ele>128</ele>
        <time>2020-09-22T19:18:53+02:00</time>
      </trkpt>
      <trkpt lat="50.51162" lon="4.61585">
        <ele>127</ele>
        <time>2020-09-22T19:18:57+02:00</time>
      </trkpt>
      <trkpt lat="50.51166" lon="4.61531">
        <ele>125</ele>
        <time>2020-09-22T19:19:02+02:00</time>
      </trkpt>
      <trkpt lat="50.512" lon="4.61377">
        <ele>124</ele>
        <time>2020-09-22T19:19:18+02:00</time>
      </trkpt>
      <trkpt lat="50.51206" lon="4.61308">
        <ele>124</ele>
        <time>2020-09-22T19:19:25+02:00</time>
      </trkpt>
      <trkpt lat="50.51198" lon="4.61248">
        <ele>125</ele>
        <time>2020-09-22T19:19:32+02:00</time>
      </trkpt>
      <trkpt lat="50.51187" lon="4.61208">
        <ele>126</ele>
        <time>2020-09-22T19:19:38+02:00</time>
      </trkpt>
      <trkpt lat="50.51185" lon="4.61198">
        <ele>126</ele>
        <time>2020-09-22T19:19:39+02:00</time>
      </trkpt>
      <trkpt lat="50.51151" lon="4.611">
        <ele>126</ele>
        <time>2020-09-22T19:19:54+02:00</time>
      </trkpt>
      <trkpt lat="50.51133" lon="4.61084">
        <ele>126</ele>
        <time>2020-09-22T19:19:59+02:00</time>
      </trkpt>
      <trkpt lat="50.50989" lon="4.60923">
        <ele>127</ele>
        <time>2020-09-22T19:20:41+02:00</time>
      </trkpt>
      <trkpt lat="50.50938" lon="4.6089">
        <ele>127</ele>
        <time>2020-09-22T19:20:50+02:00</time>
      </trkpt>
      <trkpt lat="50.50885" lon="4.60865">
        <ele>126</ele>
        <time>2020-09-22T19:21:00+02:00</time>
      </trkpt>
      <trkpt lat="50.50883" lon="4.60837">
        <ele>124</ele>
        <time>2020-09-22T19:21:03+02:00</time>
      </trkpt>
      <trkpt lat="50.50884" lon="4.60789">
        <ele>123</ele>
        <time>2020-09-22T19:21:08+02:00</time>
      </trkpt>
      <trkpt lat="50.50887" lon="4.60771">
        <ele>123</ele>
        <time>2020-09-22T19:21:10+02:00</time>
      </trkpt>
      <trkpt lat="50.50903" lon="4.60642">
        <ele>126</ele>
        <time>2020-09-22T19:21:25+02:00</time>
      </trkpt>
      <trkpt lat="50.50904" lon="4.6048">
        <ele>127</ele>
        <time>2020-09-22T19:21:48+02:00</time>
      </trkpt>
      <trkpt lat="50.50904" lon="4.60477">
        <ele>127</ele>
        <time>2020-09-22T19:21:49+02:00</time>
      </trkpt>
      <trkpt lat="50.50913" lon="4.60421">
        <ele>129</ele>
        <time>2020-09-22T19:21:58+02:00</time>
      </trkpt>
      <trkpt lat="50.50962" lon="4.6044">
        <ele>130</ele>
        <time>2020-09-22T19:22:10+02:00</time>
      </trkpt>
      <trkpt lat="50.50987" lon="4.60467">
        <ele>129</ele>
        <time>2020-09-22T19:22:18+02:00</time>
      </trkpt>
      <trkpt lat="50.50995" lon="4.60479">
        <ele>129</ele>
        <time>2020-09-22T19:22:21+02:00</time>
      </trkpt>
      <trkpt lat="50.51011" lon="4.60512">
        <ele>129</ele>
        <time>2020-09-22T19:22:27+02:00</time>
      </trkpt>
      <trkpt lat="50.51077" lon="4.60693">
        <ele>128</ele>
        <time>2020-09-22T19:22:55+02:00</time>
      </trkpt>
      <trkpt lat="50.51106" lon="4.60749">
        <ele>127</ele>
        <time>2020-09-22T19:23:06+02:00</time>
      </trkpt>
      <trkpt lat="50.51129" lon="4.60789">
        <ele>127</ele>
        <time>2020-09-22T19:23:16+02:00</time>
      </trkpt>
      <trkpt lat="50.51157" lon="4.60731">
        <ele>128</ele>
        <time>2020-09-22T19:23:30+02:00</time>
      </trkpt>
      <trkpt lat="50.51164" lon="4.60687">
        <ele>129</ele>
        <time>2020-09-22T19:23:39+02:00</time>
      </trkpt>
      <trkpt lat="50.51175" lon="4.60663">
        <ele>131</ele>
        <time>2020-09-22T19:23:48+02:00</time>
      </trkpt>
      <trkpt lat="50.51228" lon="4.60576">
        <ele>136</ele>
        <time>2020-09-22T19:24:23+02:00</time>
      </trkpt>
      <trkpt lat="50.51251" lon="4.60551">
        <ele>137</ele>
        <time>2020-09-22T19:24:37+02:00</time>
      </trkpt>
      <trkpt lat="50.51283" lon="4.60535">
        <ele>138</ele>
        <time>2020-09-22T19:24:54+02:00</time>
      </trkpt>
      <trkpt lat="50.51418" lon="4.60497">
        <ele>141</ele>
        <time>2020-09-22T19:25:57+02:00</time>
      </trkpt>
      <trkpt lat="50.51501" lon="4.60467">
        <ele>142</ele>
        <time>2020-09-22T19:26:18+02:00</time>
      </trkpt>
      <trkpt lat="50.51507" lon="4.60462">
        <ele>141</ele>
        <time>2020-09-22T19:26:20+02:00</time>
      </trkpt>
      <trkpt lat="50.5151" lon="4.6046">
        <ele>141</ele>
        <time>2020-09-22T19:26:20+02:00</time>
      </trkpt>
      <trkpt lat="50.51552" lon="4.60533">
        <ele>138</ele>
        <time>2020-09-22T19:26:31+02:00</time>
      </trkpt>
      <trkpt lat="50.5156" lon="4.60564">
        <ele>138</ele>
        <time>2020-09-22T19:26:34+02:00</time>
      </trkpt>
      <trkpt lat="50.51574" lon="4.60657">
        <ele>139</ele>
        <time>2020-09-22T19:27:15+02:00</time>
      </trkpt>
      <trkpt lat="50.51617" lon="4.6082">
        <ele>132</ele>
        <time>2020-09-22T19:27:24+02:00</time>
      </trkpt>
      <trkpt lat="50.51666" lon="4.60956">
        <ele>128</ele>
        <time>2020-09-22T19:27:38+02:00</time>
      </trkpt>
      <trkpt lat="50.51694" lon="4.61035">
        <ele>128</ele>
        <time>2020-09-22T19:27:39+02:00</time>
      </trkpt>
      <trkpt lat="50.51715" lon="4.61022">
        <ele>128</ele>
      </trkpt>
      <trkpt lat="50.51745" lon="4.61087">
        <ele>129</ele>
        <time>2020-09-22T19:27:44+02:00</time>
      </trkpt>
      <trkpt lat="50.51759" lon="4.61117">
        <ele>129</ele>
        <time>2020-09-22T19:27:48+02:00</time>
      </trkpt>
      <trkpt lat="50.51781" lon="4.61123">
        <ele>130</ele>
        <time>2020-09-22T19:27:59+02:00</time>
      </trkpt>
      <trkpt lat="50.51871" lon="4.6099">
        <ele>132</ele>
      </trkpt>
      <trkpt lat="50.51864" lon="4.60922">
        <ele>132</ele>
      </trkpt>
      <trkpt lat="50.51864" lon="4.60874">
        <ele>131</ele>
      </trkpt>
      <trkpt lat="50.51877" lon="4.60823">
        <ele>131</ele>
        <time>2020-09-22T19:28:11+02:00</time>
      </trkpt>
      <trkpt lat="50.51888" lon="4.60757">
        <ele>131</ele>
        <time>2020-09-22T19:28:19+02:00</time>
      </trkpt>
      <trkpt lat="50.51937" lon="4.60585">
        <ele>132</ele>
        <time>2020-09-22T19:28:48+02:00</time>
      </trkpt>
      <trkpt lat="50.51943" lon="4.60547">
        <ele>132</ele>
        <time>2020-09-22T19:28:56+02:00</time>
      </trkpt>
      <trkpt lat="50.51993" lon="4.60432">
        <ele>135</ele>
        <time>2020-09-22T19:29:23+02:00</time>
      </trkpt>
      <trkpt lat="50.52031" lon="4.60355">
        <ele>139</ele>
        <time>2020-09-22T19:29:44+02:00</time>
      </trkpt>
      <trkpt lat="50.5204" lon="4.60349">
        <ele>140</ele>
        <time>2020-09-22T19:29:48+02:00</time>
      </trkpt>
      <trkpt lat="50.52049" lon="4.60357">
        <ele>140</ele>
        <time>2020-09-22T19:29:51+02:00</time>
      </trkpt>
      <trkpt lat="50.52081" lon="4.60431">
        <ele>141</ele>
        <time>2020-09-22T19:30:11+02:00</time>
      </trkpt>
      <trkpt lat="50.52114" lon="4.60391">
        <ele>143</ele>
        <time>2020-09-22T19:30:26+02:00</time>
      </trkpt>
      <trkpt lat="50.52091" lon="4.6035">
        <ele>142</ele>
        <time>2020-09-22T19:30:39+02:00</time>
      </trkpt>
      <trkpt lat="50.5207" lon="4.6032">
        <ele>142</ele>
        <time>2020-09-22T19:30:49+02:00</time>
      </trkpt>
      <trkpt lat="50.52065" lon="4.60307">
        <ele>142</ele>
        <time>2020-09-22T19:30:53+02:00</time>
      </trkpt>
      <trkpt lat="50.52067" lon="4.60292">
        <ele>142</ele>
        <time>2020-09-22T19:30:57+02:00</time>
      </trkpt>
      <trkpt lat="50.52122" lon="4.602">
        <ele>148</ele>
        <time>2020-09-22T19:31:28+02:00</time>
      </trkpt>
      <trkpt lat="50.522" lon="4.60158">
        <ele>150</ele>
        <time>2020-09-22T19:31:59+02:00</time>
      </trkpt>
      <trkpt lat="50.5223" lon="4.6015">
        <ele>151</ele>
        <time>2020-09-22T19:32:09+02:00</time>
      </trkpt>
      <trkpt lat="50.5226" lon="4.60136">
        <ele>152</ele>
        <time>2020-09-22T19:32:19+02:00</time>
      </trkpt>
      <trkpt lat="50.5229" lon="4.60102">
        <ele>152</ele>
        <time>2020-09-22T19:32:31+02:00</time>
      </trkpt>
      <trkpt lat="50.52283" lon="4.60098">
        <ele>152</ele>
        <time>2020-09-22T19:32:33+02:00</time>
      </trkpt>
      <trkpt lat="50.52293" lon="4.60074">
        <ele>153</ele>
        <time>2020-09-22T19:32:38+02:00</time>
      </trkpt>
      <trkpt lat="50.52288" lon="4.60089">
        <ele>152</ele>
        <time>2020-09-22T19:32:48+02:00</time>
      </trkpt>
      <trkpt lat="50.52307" lon="4.60083">
        <ele>153</ele>
        <time>2020-09-22T19:32:48+02:00</time>
      </trkpt>
      <trkpt lat="50.52294" lon="4.60082">
        <ele>153</ele>
        <time>2020-09-22T19:32:55+02:00</time>
      </trkpt>
      <trkpt lat="50.52294" lon="4.6008">
        <ele>153</ele>
        <time>2020-09-22T19:33:00+02:00</time>
      </trkpt>
      <trkpt lat="50.52295" lon="4.60081">
        <ele>153</ele>
        <time>2020-09-22T19:33:05+02:00</time>
      </trkpt>
      <trkpt lat="50.52304" lon="4.60082">
        <ele>153</ele>
        <time>2020-09-22T19:33:10+02:00</time>
      </trkpt>
      <trkpt lat="50.52295" lon="4.60085">
        <ele>153</ele>
        <time>2020-09-22T19:33:11+02:00</time>
      </trkpt>
      <trkpt lat="50.52297" lon="4.6008">
        <ele>153</ele>
        <time>2020-09-22T19:33:18+02:00</time>
      </trkpt>
      <trkpt lat="50.523" lon="4.60067">
        <ele>153</ele>
        <time>2020-09-22T19:33:20+02:00</time>
      </trkpt>
      <trkpt lat="50.52311" lon="4.60083">
        <ele>153</ele>
        <time>2020-09-22T19:33:23+02:00</time>
      </trkpt>
      <trkpt lat="50.52338" lon="4.6011">
        <ele>153</ele>
        <time>2020-09-22T19:33:30+02:00</time>
      </trkpt>
      <trkpt lat="50.5235" lon="4.60111">
        <ele>153</ele>
        <time>2020-09-22T19:33:33+02:00</time>
      </trkpt>
      <trkpt lat="50.52424" lon="4.60027">
        <ele>152</ele>
        <time>2020-09-22T19:33:50+02:00</time>
      </trkpt>
      <trkpt lat="50.5244" lon="4.60013">
        <ele>153</ele>
        <time>2020-09-22T19:33:53+02:00</time>
      </trkpt>
      <trkpt lat="50.52443" lon="4.6001">
        <ele>153</ele>
        <time>2020-09-22T19:33:53+02:00</time>
      </trkpt>
      <trkpt lat="50.52485" lon="4.59934">
        <ele>150</ele>
        <time>2020-09-22T19:34:03+02:00</time>
      </trkpt>
      <trkpt lat="50.52508" lon="4.59893">
        <ele>147</ele>
        <time>2020-09-22T19:34:09+02:00</time>
      </trkpt>
      <trkpt lat="50.52532" lon="4.59833">
        <ele>144</ele>
        <time>2020-09-22T19:34:16+02:00</time>
      </trkpt>
      <trkpt lat="50.52562" lon="4.59765">
        <ele>141</ele>
        <time>2020-09-22T19:34:24+02:00</time>
      </trkpt>
      <trkpt lat="50.52583" lon="4.59763">
        <ele>140</ele>
        <time>2020-09-22T19:34:28+02:00</time>
      </trkpt>
      <trkpt lat="50.52592" lon="4.59762">
        <ele>140</ele>
        <time>2020-09-22T19:34:29+02:00</time>
      </trkpt>
      <trkpt lat="50.52597" lon="4.59762">
        <ele>140</ele>
        <time>2020-09-22T19:34:30+02:00</time>
      </trkpt>
      <trkpt lat="50.52607" lon="4.59761">
        <ele>140</ele>
        <time>2020-09-22T19:34:31+02:00</time>
      </trkpt>
      <trkpt lat="50.52622" lon="4.59761">
        <ele>139</ele>
        <time>2020-09-22T19:34:34+02:00</time>
      </trkpt>
      <trkpt lat="50.52628" lon="4.59827">
        <ele>141</ele>
        <time>2020-09-22T19:34:40+02:00</time>
      </trkpt>
      <trkpt lat="50.52639" lon="4.59825">
        <ele>140</ele>
        <time>2020-09-22T19:34:42+02:00</time>
      </trkpt>
      <trkpt lat="50.52756" lon="4.59785">
        <ele>140</ele>
        <time>2020-09-22T19:35:02+02:00</time>
      </trkpt>
      <trkpt lat="50.52761" lon="4.59783">
        <ele>140</ele>
        <time>2020-09-22T19:35:03+02:00</time>
      </trkpt>
      <trkpt lat="50.53014" lon="4.59697">
        <ele>143</ele>
        <time>2020-09-22T19:35:56+02:00</time>
      </trkpt>
      <trkpt lat="50.53036" lon="4.59696">
        <ele>144</ele>
        <time>2020-09-22T19:36:01+02:00</time>
      </trkpt>
      <trkpt lat="50.53096" lon="4.59731">
        <ele>144</ele>
        <time>2020-09-22T19:36:19+02:00</time>
      </trkpt>
      <trkpt lat="50.53138" lon="4.59733">
        <ele>144</ele>
        <time>2020-09-22T19:36:32+02:00</time>
      </trkpt>
      <trkpt lat="50.53149" lon="4.59742">
        <ele>144</ele>
        <time>2020-09-22T19:36:35+02:00</time>
      </trkpt>
      <trkpt lat="50.53157" lon="4.5976">
        <ele>144</ele>
        <time>2020-09-22T19:36:40+02:00</time>
      </trkpt>
      <trkpt lat="50.53167" lon="4.59789">
        <ele>145</ele>
        <time>2020-09-22T19:36:47+02:00</time>
      </trkpt>
      <trkpt lat="50.53174" lon="4.59796">
        <ele>146</ele>
        <time>2020-09-22T19:36:50+02:00</time>
      </trkpt>
      <trkpt lat="50.53159" lon="4.59831">
        <ele>147</ele>
        <time>2020-09-22T19:36:58+02:00</time>
      </trkpt>
      <trkpt lat="50.53167" lon="4.59872">
        <ele>148</ele>
        <time>2020-09-22T19:37:11+02:00</time>
      </trkpt>
      <trkpt lat="50.53178" lon="4.59927">
        <ele>150</ele>
        <time>2020-09-22T19:37:28+02:00</time>
      </trkpt>
      <trkpt lat="50.53246" lon="4.59902">
        <ele>152</ele>
        <time>2020-09-22T19:38:01+02:00</time>
      </trkpt>
      <trkpt lat="50.53309" lon="4.59876">
        <ele>155</ele>
        <time>2020-09-22T19:38:29+02:00</time>
      </trkpt>
      <trkpt lat="50.53331" lon="4.59865">
        <ele>156</ele>
        <time>2020-09-22T19:38:39+02:00</time>
      </trkpt>
      <trkpt lat="50.5333" lon="4.59871">
        <ele>156</ele>
        <time>2020-09-22T19:38:43+02:00</time>
      </trkpt>
      <trkpt lat="50.53342" lon="4.59934">
        <ele>157</ele>
        <time>2020-09-22T19:38:47+02:00</time>
      </trkpt>
      <trkpt lat="50.53334" lon="4.59903">
        <ele>157</ele>
        <time>2020-09-22T19:38:51+02:00</time>
      </trkpt>
      <trkpt lat="50.53329" lon="4.59868">
        <ele>156</ele>
        <time>2020-09-22T19:39:05+02:00</time>
      </trkpt>
    </trkseg>
  </trk>
</gpx>